Time;durP1;ratioP1;P1;durP2;ratioP2;P2;SDS_P1;SDS_P2;PMS_P1;PMS_P2;Temp;Humidity;BMP_temperature;BMP_pressure;BME280_temperature;BME280_humidity;BME280_pressure;Samples;Min_cycle;Max_cycle;Signal;HPM_P1;HPM_P2
2023/10/21 00:01:54;;;;;;;;;;;;;;;7.53;93.15;98757.53;4192861;28;19925;-68
2023/10/21 00:03:56;;;;;;;;;;;;;;;7.53;93.01;98770.16;4193540;28;20043;-70
2023/10/21 00:05:58;;;;;;;;;;;;;;;7.52;93.15;98772.03;4193898;28;20011;-69
2023/10/21 00:08:03;;;;;;;;;;;;;;;7.54;93.09;98775.31;4193514;28;20452;-69
2023/10/21 00:10:06;;;;;;;;;;;;;;;7.53;92.63;98776.34;4193680;28;20015;-70
2023/10/21 00:12:08;;;;;;;;;;;;;;;7.53;92.89;98778.22;4194013;28;20442;-69
2023/10/21 00:14:10;;;;;;;;;;;;;;;7.53;93.27;98776.34;4193116;28;20019;-68
2023/10/21 00:16:14;;;;;;;;;;;;;;;7.53;93.57;98784.41;4194384;28;20011;-69
2023/10/21 00:18:16;;;;;;;;;;;;;;;7.54;93.43;98786.06;4194453;28;20023;-68
2023/10/21 00:20:18;;;;;;;;;;;;;;;7.54;93.57;98783.38;4193598;28;20019;-70
2023/10/21 00:22:20;;;;;;;;;;;;;;;7.54;93.31;98780.69;4192533;28;19968;-69
2023/10/21 00:24:21;;;;;;;;;;;;;;;7.53;93.39;98776.34;4194300;28;20011;-69
2023/10/21 00:26:23;;;;;;;;;;;;;;;7.54;94.05;98775.31;4194766;28;19928;-68
2023/10/21 00:28:30;;;;;;;;;;;;;;;7.53;93.96;98765.59;4192259;28;20015;-69
2023/10/21 00:30:31;;;;;;;;;;;;;;;7.53;93.98;98776.34;4191281;28;20043;-69
2023/10/21 00:32:36;;;;;;;;;;;;;;;7.56;93.96;98775.94;4192315;28;20023;-69
2023/10/21 00:34:39;;;;;;;;;;;;;;;7.54;93.90;98761.88;4184509;28;20027;-68
2023/10/21 00:36:41;;;;;;;;;;;;;;;7.54;93.73;98761.06;4192715;28;20027;-71
2023/10/21 00:38:43;;;;;;;;;;;;;;;7.54;93.87;98759.19;4194495;28;20019;-69
2023/10/21 00:40:50;;;;;;;;;;;;;;;7.56;94.22;98759.81;4193396;28;20023;-69
2023/10/21 00:42:54;;;;;;;;;;;;;;;7.56;94.19;98767.06;4192534;28;20484;-68
2023/10/21 00:44:56;;;;;;;;;;;;;;;7.56;93.93;98777.78;4192093;28;20028;-68
2023/10/21 00:46:59;;;;;;;;;;;;;;;7.57;94.21;98782.16;4210752;28;20054;-68
2023/10/21 00:49:04;;;;;;;;;;;;;;;7.57;94.43;98788.34;4192949;28;20015;-69
2023/10/21 00:51:06;;;;;;;;;;;;;;;7.58;94.49;98799.91;4191990;28;20023;-71
2023/10/21 00:53:08;;;;;;;;;;;;;;;7.58;94.66;98789.16;4191831;28;20023;-70
2023/10/21 00:55:10;;;;;;;;;;;;;;;7.58;94.23;98789.16;4193965;28;20027;-70
2023/10/21 00:57:12;;;;;;;;;;;;;;;7.58;93.85;98787.28;4192805;28;20016;-71
2023/10/21 00:59:15;;;;;;;;;;;;;;;7.58;94.17;98778.41;4193750;28;20373;-69
2023/10/21 01:01:17;;;;;;;;;;;;;;;7.60;94.45;98783.56;4190193;28;20896;-73
2023/10/21 01:03:19;;;;;;;;;;;;;;;7.59;94.36;98782.75;4192743;28;19924;-68
2023/10/21 01:05:22;;;;;;;;;;;;;;;7.61;94.62;98787.94;4175923;28;20016;-69
2023/10/21 01:07:24;;;;;;;;;;;;;;;7.61;94.73;98798.69;4193282;28;20760;-68
2023/10/21 01:09:27;;;;;;;;;;;;;;;7.61;94.98;98815.63;4192925;28;20039;-68
2023/10/21 01:11:29;;;;;;;;;;;;;;;7.62;94.86;98822.66;4196044;28;20027;-68
2023/10/21 01:13:32;;;;;;;;;;;;;;;7.62;94.74;98801.16;4197106;28;20030;-68
2023/10/21 01:15:35;;;;;;;;;;;;;;;7.62;94.97;98786.88;4195000;28;20381;-69
2023/10/21 01:17:37;;;;;;;;;;;;;;;7.63;94.83;98793.91;4196568;28;20030;-70
2023/10/21 01:19:39;;;;;;;;;;;;;;;7.63;95.12;98813.53;4196027;28;20023;-70
2023/10/21 01:21:42;;;;;;;;;;;;;;;7.64;95.04;98828.63;4196145;28;20049;-69
2023/10/21 01:23:46;;;;;;;;;;;;;;;7.63;95.44;98818.91;4194010;28;19928;-68
2023/10/21 01:25:48;;;;;;;;;;;;;;;7.64;95.44;98814.38;4197206;28;20055;-68
2023/10/21 01:27:52;;;;;;;;;;;;;;;7.64;95.21;98799.09;4196522;28;20011;-69
2023/10/21 01:29:54;;;;;;;;;;;;;;;7.64;95.47;98801.78;4196103;28;20023;-68
2023/10/21 01:31:56;;;;;;;;;;;;;;;7.65;95.19;98799.91;4194700;28;20027;-69
2023/10/21 01:33:59;;;;;;;;;;;;;;;7.66;95.20;98809.63;4196707;28;20510;-68
2023/10/21 01:36:01;;;;;;;;;;;;;;;7.67;95.75;98811.28;4196953;28;20011;-69
2023/10/21 01:38:03;;;;;;;;;;;;;;;7.68;95.67;98804.84;4196827;28;20022;-69
2023/10/21 01:40:09;;;;;;;;;;;;;;;7.68;95.68;98812.91;4195036;28;20039;-70
2023/10/21 01:42:11;;;;;;;;;;;;;;;7.69;95.67;98814.59;4196294;28;19960;-69
2023/10/21 01:44:13;;;;;;;;;;;;;;;7.69;95.65;98811.91;4196127;28;20446;-70
2023/10/21 01:46:15;;;;;;;;;;;;;;;7.69;95.78;98809.22;4194254;28;20028;-70
2023/10/21 01:48:17;;;;;;;;;;;;;;;7.69;95.56;98815.41;4188315;28;20046;-71
2023/10/21 01:50:18;;;;;;;;;;;;;;;7.70;95.64;98808.19;4195893;28;20331;-70
2023/10/21 01:52:21;;;;;;;;;;;;;;;7.71;95.86;98807.13;4196261;28;20381;-70
2023/10/21 01:54:23;;;;;;;;;;;;;;;7.69;95.75;98801.97;4196125;28;20478;-70
2023/10/21 01:56:26;;;;;;;;;;;;;;;7.70;95.80;98798.25;4194537;28;20019;-70
2023/10/21 01:58:28;;;;;;;;;;;;;;;7.70;95.40;98797.44;4195659;28;20446;-70
2023/10/21 02:00:30;;;;;;;;;;;;;;;7.71;95.93;98793.69;4195060;28;20022;-70
2023/10/21 02:02:31;;;;;;;;;;;;;;;7.72;95.84;98806.13;4194813;28;20027;-70
2023/10/21 02:04:33;;;;;;;;;;;;;;;7.72;95.72;98798.06;4195615;28;19928;-70
2023/10/21 02:06:35;;;;;;;;;;;;;;;7.72;96.01;98801.56;4195465;28;20010;-70
2023/10/21 02:08:37;;;;;;;;;;;;;;;7.72;96.02;98812.31;4195765;28;20015;-70
2023/10/21 02:10:40;;;;;;;;;;;;;;;7.72;95.85;98814.19;4195511;28;20027;-71
2023/10/21 02:12:44;;;;;;;;;;;;;;;7.72;95.77;98811.50;4195689;28;20016;-70
2023/10/21 02:14:46;;;;;;;;;;;;;;;7.73;95.80;98815.84;4196128;28;20023;-70
2023/10/21 02:16:48;;;;;;;;;;;;;;;7.73;95.90;98821.22;4195736;28;19976;-71
2023/10/21 02:18:50;;;;;;;;;;;;;;;7.73;95.81;98821.22;4195919;28;20015;-70
2023/10/21 02:20:51;;;;;;;;;;;;;;;7.73;95.42;98807.78;4194752;28;20023;-70
2023/10/21 02:22:53;;;;;;;;;;;;;;;7.73;95.39;98813.16;4194451;28;20318;-71
2023/10/21 02:24:55;;;;;;;;;;;;;;;7.73;95.83;98816.66;4196656;28;19924;-71
2023/10/21 02:26:57;;;;;;;;;;;;;;;7.74;95.71;98815.63;4195933;28;20069;-70
2023/10/21 02:29:01;;;;;;;;;;;;;;;7.74;95.42;98814.78;4196677;28;20015;-71
2023/10/21 02:31:03;;;;;;;;;;;;;;;7.75;95.32;98816.44;4194003;28;20027;-70
2023/10/21 02:33:05;;;;;;;;;;;;;;;7.75;95.38;98825.34;4187629;28;20019;-70
2023/10/21 02:35:08;;;;;;;;;;;;;;;7.76;95.75;98831.56;4211854;28;20027;-70
2023/10/21 02:37:11;;;;;;;;;;;;;;;7.76;95.46;98843.13;4194380;28;20015;-70
2023/10/21 02:39:13;;;;;;;;;;;;;;;7.76;96.02;98845.00;4195963;28;20482;-71
2023/10/21 02:41:15;;;;;;;;;;;;;;;7.78;96.30;98852.84;4196165;28;20028;-70
2023/10/21 02:43:17;;;;;;;;;;;;;;;7.77;96.25;98860.06;4195527;28;20007;-70
2023/10/21 02:45:21;;;;;;;;;;;;;;;7.79;96.41;98870.59;4194815;28;20386;-70
2023/10/21 02:47:23;;;;;;;;;;;;;;;7.79;96.57;98874.16;4195996;28;20438;-71
2023/10/21 02:49:29;;;;;;;;;;;;;;;7.79;96.39;98879.53;4195194;28;20024;-70
2023/10/21 02:51:30;;;;;;;;;;;;;;;7.79;96.89;98884.91;4194278;28;20774;-71
2023/10/21 02:53:32;;;;;;;;;;;;;;;7.80;96.40;98883.03;4194623;28;20029;-71
2023/10/21 02:55:34;;;;;;;;;;;;;;;7.81;96.28;98877.44;4196095;28;20015;-71
2023/10/21 02:57:36;;;;;;;;;;;;;;;7.80;96.11;98881.16;4196080;28;20023;-71
2023/10/21 02:59:38;;;;;;;;;;;;;;;7.80;95.64;98874.97;4195557;28;20027;-70
2023/10/21 03:01:42;;;;;;;;;;;;;;;7.79;95.65;98874.16;4194697;28;20016;-71
2023/10/21 03:03:44;;;;;;;;;;;;;;;7.79;95.65;98874.16;4194966;28;20020;-70
2023/10/21 03:05:46;;;;;;;;;;;;;;;7.81;96.01;98877.44;4195739;28;20027;-70
2023/10/21 03:07:48;;;;;;;;;;;;;;;7.80;96.08;98873.09;4195740;28;20043;-71
2023/10/21 03:09:49;;;;;;;;;;;;;;;7.80;95.77;98883.03;4195120;28;20023;-70
2023/10/21 03:11:51;;;;;;;;;;;;;;;7.81;95.83;98877.44;4195540;28;19928;-70
2023/10/21 03:13:53;;;;;;;;;;;;;;;7.81;95.98;98871.25;4195622;28;20020;-70
2023/10/21 03:15:54;;;;;;;;;;;;;;;7.82;95.73;98886.31;4196777;28;19971;-70
2023/10/21 03:17:58;;;;;;;;;;;;;;;7.83;96.22;98899.56;4194480;28;20015;-70
2023/10/21 03:19:59;;;;;;;;;;;;;;;7.82;96.35;98884.50;4194465;28;20022;-70
2023/10/21 03:22:01;;;;;;;;;;;;;;;7.82;96.60;98881.81;4194371;28;19928;-70
2023/10/21 03:24:03;;;;;;;;;;;;;;;7.83;96.60;98888.00;4194745;28;20021;-70
2023/10/21 03:26:05;;;;;;;;;;;;;;;7.82;96.51;98899.75;4195005;28;19924;-70
2023/10/21 03:28:07;;;;;;;;;;;;;;;7.83;96.25;98896.88;4194999;28;20028;-70
2023/10/21 03:30:09;;;;;;;;;;;;;;;7.83;96.33;98898.75;4193145;28;20028;-70
2023/10/21 03:32:10;;;;;;;;;;;;;;;7.84;96.54;98897.72;4189369;28;20011;-70
2023/10/21 03:34:14;;;;;;;;;;;;;;;7.83;96.31;98902.25;4194258;28;19924;-70
2023/10/21 03:36:16;;;;;;;;;;;;;;;7.84;96.01;98905.78;4194453;28;20027;-70
2023/10/21 03:38:17;;;;;;;;;;;;;;;7.84;96.29;98892.34;4194560;28;20044;-71
2023/10/21 03:40:19;;;;;;;;;;;;;;;7.84;96.18;98906.59;4193359;28;20015;-71
2023/10/21 03:42:21;;;;;;;;;;;;;;;7.84;96.22;98903.91;4193402;28;20030;-70
2023/10/21 03:44:23;;;;;;;;;;;;;;;7.85;96.51;98908.28;4193617;28;20032;-70
2023/10/21 03:46:25;;;;;;;;;;;;;;;7.86;96.82;98906.41;4187441;28;20419;-70
2023/10/21 03:48:27;;;;;;;;;;;;;;;7.86;96.86;98904.53;4194684;28;20011;-70
2023/10/21 03:50:30;;;;;;;;;;;;;;;7.86;96.51;98898.34;4194704;28;20051;-71
2023/10/21 03:52:32;;;;;;;;;;;;;;;7.86;96.65;98890.28;4194233;28;20381;-71
2023/10/21 03:54:34;;;;;;;;;;;;;;;7.87;96.97;98894.63;4194718;28;20376;-70
2023/10/21 03:56:38;;;;;;;;;;;;;;;7.87;96.92;98895.44;4195037;28;20371;-70
2023/10/21 03:58:40;;;;;;;;;;;;;;;7.86;96.80;98885.72;4194808;28;20023;-70
2023/10/21 04:00:41;;;;;;;;;;;;;;;7.88;96.74;98880.13;4193419;28;20018;-70
2023/10/21 04:02:43;;;;;;;;;;;;;;;7.87;96.54;98883.88;4191763;28;19935;-70
2023/10/21 04:04:45;;;;;;;;;;;;;;;7.88;96.46;98885.50;4193256;28;20014;-70
2023/10/21 04:06:49;;;;;;;;;;;;;;;7.87;96.82;98878.50;4194780;28;19924;-70
2023/10/21 04:08:51;;;;;;;;;;;;;;;7.87;96.67;98879.31;4194145;28;20462;-71
2023/10/21 04:10:53;;;;;;;;;;;;;;;7.86;96.91;98869.59;4192882;28;20027;-70
2023/10/21 04:12:56;;;;;;;;;;;;;;;7.88;96.96;98880.97;4194250;28;20011;-70
2023/10/21 04:14:57;;;;;;;;;;;;;;;7.88;96.98;98880.97;4194713;28;20027;-71
2023/10/21 04:16:59;;;;;;;;;;;;;;;7.88;96.99;98878.28;4194557;28;19925;-70
2023/10/21 04:19:01;;;;;;;;;;;;;;;7.89;96.92;98889.88;4193313;28;20016;-70
2023/10/21 04:21:03;;;;;;;;;;;;;;;7.89;97.36;98892.56;4193697;28;20430;-71
2023/10/21 04:23:06;;;;;;;;;;;;;;;7.88;97.16;98899.78;4194088;28;20043;-71
2023/10/21 04:25:09;;;;;;;;;;;;;;;7.89;97.02;98914.88;4193963;28;20047;-70
2023/10/21 04:27:11;;;;;;;;;;;;;;;7.91;97.68;98907.41;4193299;28;19940;-70
2023/10/21 04:29:15;;;;;;;;;;;;;;;7.92;97.54;98913.66;4194188;28;20019;-70
2023/10/21 04:31:19;;;;;;;;;;;;;;;7.91;97.35;98912.78;4191285;28;20024;-70
2023/10/21 04:33:21;;;;;;;;;;;;;;;7.91;97.60;98902.03;4193096;28;20019;-70
2023/10/21 04:35:23;;;;;;;;;;;;;;;7.91;97.61;98915.50;4194038;28;20019;-70
2023/10/21 04:37:25;;;;;;;;;;;;;;;7.90;97.36;98919.22;4194576;28;20015;-70
2023/10/21 04:39:30;;;;;;;;;;;;;;;7.89;97.42;98920.25;4192943;28;20892;-70
2023/10/21 04:41:32;;;;;;;;;;;;;;;7.91;97.07;98912.78;4193185;28;20031;-70
2023/10/21 04:43:34;;;;;;;;;;;;;;;7.92;97.27;98913.66;4193684;28;20030;-70
2023/10/21 04:45:36;;;;;;;;;;;;;;;7.92;97.30;98902.91;4193244;28;19983;-71
2023/10/21 04:47:39;;;;;;;;;;;;;;;7.91;97.73;98904.72;4193262;28;20450;-70
2023/10/21 04:49:42;;;;;;;;;;;;;;;7.92;97.43;98919.84;4193913;28;20023;-70
2023/10/21 04:51:45;;;;;;;;;;;;;;;7.90;97.05;98919.22;4191246;28;20011;-70
2023/10/21 04:53:47;;;;;;;;;;;;;;;7.90;97.22;98924.59;4193450;28;20032;-71
2023/10/21 04:55:53;;;;;;;;;;;;;;;7.91;97.56;98928.94;4193056;28;20312;-71
2023/10/21 04:57:55;;;;;;;;;;;;;;;7.92;97.71;98922.53;4193721;28;20011;-71
2023/10/21 04:59:56;;;;;;;;;;;;;;;7.93;97.65;98928.72;4193616;28;20027;-70
2023/10/21 05:01:58;;;;;;;;;;;;;;;7.93;97.71;98928.72;4191884;28;20829;-70
2023/10/21 05:04:00;;;;;;;;;;;;;;;7.93;97.46;98940.31;4192653;28;20035;-70
2023/10/21 05:06:04;;;;;;;;;;;;;;;7.94;97.81;98935.75;4191901;28;20027;-70
2023/10/21 05:08:06;;;;;;;;;;;;;;;7.94;97.65;98931.22;4192315;28;19932;-70
2023/10/21 05:10:08;;;;;;;;;;;;;;;7.94;98.04;98930.38;4192030;28;20015;-71
2023/10/21 05:12:11;;;;;;;;;;;;;;;7.94;97.70;98928.53;4192092;28;20030;-71
2023/10/21 05:14:14;;;;;;;;;;;;;;;7.93;97.43;98918.81;4193381;28;20027;-70
2023/10/21 05:16:16;;;;;;;;;;;;;;;7.93;97.06;98921.50;4193880;28;20175;-70
2023/10/21 05:18:18;;;;;;;;;;;;;;;7.94;97.13;98927.69;4194355;28;20007;-70
2023/10/21 05:20:20;;;;;;;;;;;;;;;7.94;96.66;98925.00;4193400;28;20343;-70
2023/10/21 05:22:22;;;;;;;;;;;;;;;7.94;96.99;98931.22;4192883;28;20016;-71
2023/10/21 05:24:24;;;;;;;;;;;;;;;7.96;96.94;98940.94;4193093;28;20015;-71
2023/10/21 05:26:28;;;;;;;;;;;;;;;7.97;97.28;98946.09;4193772;28;20027;-71
2023/10/21 05:28:31;;;;;;;;;;;;;;;7.97;96.83;98953.34;4193836;28;20457;-71
2023/10/21 05:30:33;;;;;;;;;;;;;;;7.96;96.92;98940.94;4190913;28;20023;-71
2023/10/21 05:32:36;;;;;;;;;;;;;;;7.96;96.89;98938.25;4191520;28;20035;-70
2023/10/21 05:34:39;;;;;;;;;;;;;;;7.96;97.06;98935.56;4193940;28;20019;-71
2023/10/21 05:36:41;;;;;;;;;;;;;;;7.97;97.25;98921.09;4192496;28;20012;-70
2023/10/21 05:38:43;;;;;;;;;;;;;;;7.96;97.18;98922.94;4192553;28;20019;-70
2023/10/21 05:40:45;;;;;;;;;;;;;;;7.97;97.13;98938.03;4193212;28;20035;-71
2023/10/21 05:42:47;;;;;;;;;;;;;;;7.97;97.17;98950.66;4192652;28;20390;-71
2023/10/21 05:44:52;;;;;;;;;;;;;;;7.98;97.36;98955.84;4191873;28;20035;-71
2023/10/21 05:46:54;;;;;;;;;;;;;;;7.96;97.21;98959.75;4193314;28;20027;-71
2023/10/21 05:48:56;;;;;;;;;;;;;;;7.96;96.85;98965.94;4193660;28;19924;-71
2023/10/21 05:50:59;;;;;;;;;;;;;;;7.97;97.13;98959.56;4191595;28;20007;-71
2023/10/21 05:53:03;;;;;;;;;;;;;;;7.98;97.80;98965.75;4191761;28;20453;-70
2023/10/21 05:55:05;;;;;;;;;;;;;;;7.99;97.58;98962.03;4192737;28;20007;-70
2023/10/21 05:57:08;;;;;;;;;;;;;;;7.98;97.56;98966.59;4193739;28;20016;-71
2023/10/21 05:59:10;;;;;;;;;;;;;;;7.98;97.37;98971.13;4195794;28;20015;-70
2023/10/21 06:01:15;;;;;;;;;;;;;;;7.97;97.50;98973.00;4191692;28;20490;-71
2023/10/21 06:03:16;;;;;;;;;;;;;;;7.98;97.85;98974.66;4195131;28;20031;-71
2023/10/21 06:05:19;;;;;;;;;;;;;;;7.99;97.77;98991.59;4195653;28;20575;-70
2023/10/21 06:07:21;;;;;;;;;;;;;;;7.99;98.32;99000.50;4195097;28;20023;-70
2023/10/21 06:09:24;;;;;;;;;;;;;;;8.01;98.27;99003.84;4194577;28;19935;-69
2023/10/21 06:11:26;;;;;;;;;;;;;;;7.99;98.09;99005.88;4195204;28;20020;-71
2023/10/21 06:13:28;;;;;;;;;;;;;;;8.00;98.33;99007.53;4193511;28;20011;-71
2023/10/21 06:15:33;;;;;;;;;;;;;;;8.03;98.72;98998.25;4195008;28;20011;-69
2023/10/21 06:17:39;;;;;;;;;;;;;;;8.02;98.85;98999.28;4195497;28;20354;-71
2023/10/21 06:19:42;;;;;;;;;;;;;;;8.01;98.36;98990.38;4194223;28;20018;-71
2023/10/21 06:21:44;;;;;;;;;;;;;;;8.01;98.37;98998.44;4193059;28;20022;-71
2023/10/21 06:23:46;;;;;;;;;;;;;;;8.02;98.57;99002.78;4192483;28;20365;-69
2023/10/21 06:25:47;;;;;;;;;;;;;;;8.02;98.52;98999.28;4193352;28;20015;-72
2023/10/21 06:27:49;;;;;;;;;;;;;;;8.02;98.29;99010.03;4192566;28;20436;-71
2023/10/21 06:29:51;;;;;;;;;;;;;;;8.02;98.59;99004.66;4194207;28;20458;-71
2023/10/21 06:31:53;;;;;;;;;;;;;;;8.03;98.65;99003.63;4191960;28;20019;-70
2023/10/21 06:33:56;;;;;;;;;;;;;;;8.04;98.32;99011.50;4193718;28;20011;-71
2023/10/21 06:35:58;;;;;;;;;;;;;;;8.03;98.16;99007.13;4195204;28;20015;-70
2023/10/21 06:38:01;;;;;;;;;;;;;;;8.05;98.29;99013.13;4195458;28;20019;-71
2023/10/21 06:40:04;;;;;;;;;;;;;;;8.05;98.35;99006.94;4193449;28;20019;-71
2023/10/21 06:42:07;;;;;;;;;;;;;;;8.06;98.22;99016.66;4211539;28;19928;-71
2023/10/21 06:44:09;;;;;;;;;;;;;;;8.05;97.78;99018.50;4196274;28;19928;-71
2023/10/21 06:46:13;;;;;;;;;;;;;;;8.06;97.53;99019.34;4195428;28;20363;-71
2023/10/21 06:48:15;;;;;;;;;;;;;;;8.05;97.50;99015.81;4195485;28;20029;-70
2023/10/21 06:50:19;;;;;;;;;;;;;;;8.05;97.43;99020.38;4194840;28;20436;-70
2023/10/21 06:52:21;;;;;;;;;;;;;;;8.06;97.71;99024.72;4195223;28;20019;-70
2023/10/21 06:54:22;;;;;;;;;;;;;;;8.07;98.18;99029.91;4194148;28;20485;-70
2023/10/21 06:56:24;;;;;;;;;;;;;;;8.07;98.40;99029.06;4193987;28;20020;-69
2023/10/21 06:58:26;;;;;;;;;;;;;;;8.05;98.11;99025.75;4194293;28;20019;-70
2023/10/21 07:00:28;;;;;;;;;;;;;;;8.06;98.22;99035.50;4191787;28;20011;-70
2023/10/21 07:02:30;;;;;;;;;;;;;;;8.06;97.90;99033.63;4192903;28;20015;-71
2023/10/21 07:04:33;;;;;;;;;;;;;;;8.07;97.71;99034.44;4195012;28;20023;-70
2023/10/21 07:06:39;;;;;;;;;;;;;;;8.07;97.49;99039.81;4195240;28;19992;-70
2023/10/21 07:08:41;;;;;;;;;;;;;;;8.08;97.66;99044.16;4194636;28;20019;-70
2023/10/21 07:10:43;;;;;;;;;;;;;;;8.08;97.75;99042.31;4193365;28;19978;-70
2023/10/21 07:12:45;;;;;;;;;;;;;;;8.09;97.72;99053.91;4193368;28;20385;-70
2023/10/21 07:14:47;;;;;;;;;;;;;;;8.10;97.78;99058.22;4192315;28;20023;-71
2023/10/21 07:16:49;;;;;;;;;;;;;;;8.10;97.52;99051.00;4192645;28;20015;-70
2023/10/21 07:18:51;;;;;;;;;;;;;;;8.11;97.76;99054.53;4192755;28;20016;-70
2023/10/21 07:20:56;;;;;;;;;;;;;;;8.12;97.56;99050.81;4191280;28;20023;-69
2023/10/21 07:22:59;;;;;;;;;;;;;;;8.12;97.25;99056.19;4191509;28;20015;-71
2023/10/21 07:25:01;;;;;;;;;;;;;;;8.14;97.33;99058.69;4192862;28;20516;-70
2023/10/21 07:27:04;;;;;;;;;;;;;;;8.14;97.47;99070.25;4192451;28;20074;-70
2023/10/21 07:29:07;;;;;;;;;;;;;;;8.14;97.73;99072.94;4189337;28;20012;-70
2023/10/21 07:31:09;;;;;;;;;;;;;;;8.16;97.64;99070.88;4190431;28;20387;-70
2023/10/21 07:33:13;;;;;;;;;;;;;;;8.18;97.79;99070.66;4188919;28;20440;-70
2023/10/21 07:35:16;;;;;;;;;;;;;;;8.18;97.95;99074.22;4190530;28;20003;-70
2023/10/21 07:37:18;;;;;;;;;;;;;;;8.18;97.60;99071.50;4191864;28;20020;-70
2023/10/21 07:39:24;;;;;;;;;;;;;;;8.19;97.46;99070.47;4191459;28;20019;-71
2023/10/21 07:41:26;;;;;;;;;;;;;;;8.19;97.04;99078.53;4193044;28;19925;-69
2023/10/21 07:43:29;;;;;;;;;;;;;;;8.20;96.66;99074.81;4193357;28;20010;-70
2023/10/21 07:45:36;;;;;;;;;;;;;;;8.21;97.10;99086.41;4191131;28;20026;-70
2023/10/21 07:47:37;;;;;;;;;;;;;;;8.23;96.49;99087.88;4190384;28;20370;-70
2023/10/21 07:49:39;;;;;;;;;;;;;;;8.23;96.54;99089.75;4190067;28;20055;-70
2023/10/21 07:51:41;;;;;;;;;;;;;;;8.25;96.51;99087.66;4192554;28;19925;-70
2023/10/21 07:53:43;;;;;;;;;;;;;;;8.25;96.47;99085.78;4192377;28;20027;-70
2023/10/21 07:55:47;;;;;;;;;;;;;;;8.26;96.14;99086.63;4193443;28;20048;-70
2023/10/21 07:57:49;;;;;;;;;;;;;;;8.26;96.01;99092.84;4191480;28;20048;-70
2023/10/21 07:59:51;;;;;;;;;;;;;;;8.27;95.85;99088.28;4191889;28;19925;-70
2023/10/21 08:01:54;;;;;;;;;;;;;;;8.28;95.81;99084.56;4190451;28;20012;-70
2023/10/21 08:03:56;;;;;;;;;;;;;;;8.29;96.07;99097.81;4190707;28;20373;-69
2023/10/21 08:05:58;;;;;;;;;;;;;;;8.30;95.74;99099.47;4191910;28;20629;-70
2023/10/21 08:08:03;;;;;;;;;;;;;;;8.33;95.63;99098.22;4191764;28;20023;-70
2023/10/21 08:10:06;;;;;;;;;;;;;;;8.34;95.02;99104.44;4189973;28;20032;-70
2023/10/21 08:12:10;;;;;;;;;;;;;;;8.34;94.44;99102.59;4192301;28;19924;-70
2023/10/21 08:14:12;;;;;;;;;;;;;;;8.37;94.45;99109.41;4191337;28;20358;-70
2023/10/21 08:16:15;;;;;;;;;;;;;;;8.38;94.15;99111.06;4192549;28;20384;-70
2023/10/21 08:18:17;;;;;;;;;;;;;;;8.39;93.86;99110.06;4192132;28;20026;-70
2023/10/21 08:20:20;;;;;;;;;;;;;;;8.41;93.87;99113.38;4190242;28;20030;-71
2023/10/21 08:22:22;;;;;;;;;;;;;;;8.42;93.64;99118.53;4192516;28;19928;-69
2023/10/21 08:24:24;;;;;;;;;;;;;;;8.46;93.29;99124.38;4190709;28;20015;-69
2023/10/21 08:26:28;;;;;;;;;;;;;;;8.47;92.52;99120.66;4192002;28;20015;-69
2023/10/21 08:28:31;;;;;;;;;;;;;;;8.48;92.29;99123.16;4192381;28;20019;-69
2023/10/21 08:30:33;;;;;;;;;;;;;;;8.50;91.96;99127.50;4190710;28;20498;-71
2023/10/21 08:32:36;;;;;;;;;;;;;;;8.52;91.43;99123.56;4191507;28;19929;-70
2023/10/21 08:34:38;;;;;;;;;;;;;;;8.56;91.05;99130.19;4193978;28;20007;-70
2023/10/21 08:36:40;;;;;;;;;;;;;;;8.59;90.20;99127.09;4193970;28;20353;-70
2023/10/21 08:38:42;;;;;;;;;;;;;;;8.62;89.33;99133.91;4194334;28;20497;-70
2023/10/21 08:40:46;;;;;;;;;;;;;;;8.65;89.17;99133.53;4193757;28;20355;-71
2023/10/21 08:42:49;;;;;;;;;;;;;;;8.68;88.80;99134.97;4195143;28;20350;-70
2023/10/21 08:44:51;;;;;;;;;;;;;;;8.71;88.54;99142.66;4177257;28;20015;-70
2023/10/21 08:46:54;;;;;;;;;;;;;;;8.73;87.87;99144.13;4196015;28;20023;-70
2023/10/21 08:48:56;;;;;;;;;;;;;;;8.75;87.86;99152.81;4195701;28;20221;-70
2023/10/21 08:50:58;;;;;;;;;;;;;;;8.78;87.25;99148.88;4193538;28;20370;-69
2023/10/21 08:53:00;;;;;;;;;;;;;;;8.81;87.09;99153.88;4191570;28;19932;-69
2023/10/21 08:55:05;;;;;;;;;;;;;;;8.85;86.48;99157.78;4191108;28;20031;-69
2023/10/21 08:57:09;;;;;;;;;;;;;;;8.89;85.79;99155.53;4191008;28;20022;-69
2023/10/21 08:59:11;;;;;;;;;;;;;;;8.91;85.50;99156.97;4193164;28;20011;-69
2023/10/21 09:01:15;;;;;;;;;;;;;;;8.93;84.99;99149.50;4190831;28;20024;-70
2023/10/21 09:03:17;;;;;;;;;;;;;;;8.97;85.05;99153.47;4192277;28;20472;-70
2023/10/21 09:05:19;;;;;;;;;;;;;;;9.00;84.67;99152.22;4194412;28;19968;-70
2023/10/21 09:07:22;;;;;;;;;;;;;;;9.01;84.36;99149.34;4193877;28;20011;-70
2023/10/21 09:09:23;;;;;;;;;;;;;;;9.04;83.96;99156.16;4193179;28;20023;-69
2023/10/21 09:11:27;;;;;;;;;;;;;;;9.07;83.66;99157.63;4194395;28;20024;-70
2023/10/21 09:13:29;;;;;;;;;;;;;;;9.09;83.42;99161.78;4193597;28;20546;-70
2023/10/21 09:15:35;;;;;;;;;;;;;;;9.13;83.35;99162.19;4194358;28;20606;-70
2023/10/21 09:17:38;;;;;;;;;;;;;;;9.15;82.86;99163.63;4194495;28;19971;-70
2023/10/21 09:19:45;;;;;;;;;;;;;;;9.18;82.93;99167.75;4194367;28;19925;-71
2023/10/21 09:21:47;;;;;;;;;;;;;;;9.22;82.39;99179.78;4194707;28;19928;-70
2023/10/21 09:23:52;;;;;;;;;;;;;;;9.24;82.17;99168.81;4193007;28;20027;-70
2023/10/21 09:25:54;;;;;;;;;;;;;;;9.27;82.04;99177.31;4194560;28;20026;-70
2023/10/21 09:27:56;;;;;;;;;;;;;;;9.30;82.07;99179.59;4193368;28;20028;-69
2023/10/21 09:29:57;;;;;;;;;;;;;;;9.33;81.94;99176.47;4191916;28;20558;-70
2023/10/21 09:32:02;;;;;;;;;;;;;;;9.35;81.47;99177.09;4194842;28;19929;-70
2023/10/21 09:34:05;;;;;;;;;;;;;;;9.39;81.70;99182.91;4197810;28;19935;-71
2023/10/21 09:36:07;;;;;;;;;;;;;;;9.41;81.85;99182.72;4198482;28;20019;-69
2023/10/21 09:38:16;;;;;;;;;;;;;;;9.42;81.92;99182.50;4196015;28;20011;-70
2023/10/21 09:40:20;;;;;;;;;;;;;;;9.45;81.95;99190.16;4196185;28;20028;-70
2023/10/21 09:42:22;;;;;;;;;;;;;;;9.48;82.37;99187.06;4197169;28;20385;-70
2023/10/21 09:44:24;;;;;;;;;;;;;;;9.49;82.11;99186.00;4195509;28;20016;-69
2023/10/21 09:46:28;;;;;;;;;;;;;;;9.52;81.89;99199.06;4197551;28;20032;-69
2023/10/21 09:48:30;;;;;;;;;;;;;;;9.52;82.01;99199.06;4197654;28;20024;-69
2023/10/21 09:50:33;;;;;;;;;;;;;;;9.55;81.78;99201.34;4196509;28;20024;-69
2023/10/21 09:52:36;;;;;;;;;;;;;;;9.57;82.05;99199.25;4196573;28;20487;-69
2023/10/21 09:54:41;;;;;;;;;;;;;;;9.61;81.85;99206.94;4197327;28;19992;-69
2023/10/21 09:56:42;;;;;;;;;;;;;;;9.62;82.04;99214.81;4196783;28;20027;-70
2023/10/21 09:58:44;;;;;;;;;;;;;;;9.64;82.15;99212.75;4192232;28;19932;-70
2023/10/21 10:00:47;;;;;;;;;;;;;;;9.66;82.42;99207.97;4197304;28;19966;-70
2023/10/21 10:02:49;;;;;;;;;;;;;;;9.66;82.43;99205.28;4194909;28;20019;-71
2023/10/21 10:04:50;;;;;;;;;;;;;;;9.69;82.20;99214.81;4196649;28;20446;-70
2023/10/21 10:06:58;;;;;;;;;;;;;;;9.70;81.88;99208.38;4196851;28;19924;-70
2023/10/21 10:09:03;;;;;;;;;;;;;;;9.72;81.83;99220.63;4197512;28;20016;-70
2023/10/21 10:11:07;;;;;;;;;;;;;;;9.73;81.73;99211.50;4196672;28;20373;-70
2023/10/21 10:13:10;;;;;;;;;;;;;;;9.74;81.78;99212.31;4196933;28;20529;-70
2023/10/21 10:15:31;;;;;;;;;;;;;;;9.76;81.63;99201.34;4196470;28;19990;-68
2023/10/21 10:17:47;;;;;;;;;;;;;;;9.78;81.38;99213.56;4194651;28;20019;-68
2023/10/21 10:19:50;;;;;;;;;;;;;;;9.81;81.63;99217.69;4193042;28;20027;-69
2023/10/21 10:21:52;;;;;;;;;;;;;;;9.82;82.05;99220.19;4193952;28;20499;-68
2023/10/21 10:23:58;;;;;;;;;;;;;;;9.85;82.15;99211.69;4195477;28;20015;-69
2023/10/21 10:26:00;;;;;;;;;;;;;;;9.89;82.54;99217.47;4193472;28;20453;-70
2023/10/21 10:28:07;;;;;;;;;;;;;;;9.91;82.55;99218.94;4195374;28;20020;-68
2023/10/21 10:30:10;;;;;;;;;;;;;;;9.95;82.95;99216.63;4194019;28;20448;-68
2023/10/21 10:32:14;;;;;;;;;;;;;;;9.99;83.16;99217.88;4193377;28;20044;-68
2023/10/21 10:34:17;;;;;;;;;;;;;;;10.03;83.74;99216.44;4195065;28;20051;-68
2023/10/21 10:36:27;;;;;;;;;;;;;;;10.07;84.09;99211.44;4195656;28;20031;-68
2023/10/21 10:38:32;;;;;;;;;;;;;;;10.15;84.60;99215.78;4194985;28;20427;-69
2023/10/21 10:40:35;;;;;;;;;;;;;;;10.22;85.36;99224.66;4194849;28;20470;-73
2023/10/21 10:42:37;;;;;;;;;;;;;;;10.28;85.91;99219.28;4194598;28;20446;-69
2023/10/21 10:44:39;;;;;;;;;;;;;;;10.37;86.62;99221.75;4194181;28;20401;-68
2023/10/21 10:46:41;;;;;;;;;;;;;;;10.46;87.24;99237.50;4194675;28;20019;-68
2023/10/21 10:48:43;;;;;;;;;;;;;;;10.55;88.15;99238.09;4195414;28;20039;-69